Portada
METAR-TAF:

METAR-TAF

Aeroports :

Aberdeen, Escòcia

latitud: 57-12N, longitud: 002-13W, altitud: 65 m

Observació

L'informe es va fer fa 19 minuts, a les 09:20 UTC
Vent 16 kt del Sud/Sud-Oest
Temperatura 16°C
Humitat 68%
Pressió 1012 hPa
Visibilitat 10 km o més

METAR: EGPD 220920Z AUTO 21016KT 9999 NCD 16/10 Q1012 NOSIG

Hora: 10:39 (09:39 UTC)

Pronòstic

L'informe es va fer fa 4 hores i 44 minuts, a les 04:55 UTC
Pronòstic vàlid del 22 a les 06 UTC al 23 a les 06 UTC
Vent 9 kt del Sud-Oest
Visibilitat 10 km o més
Núvols disperses a una alçada de 1800 ft
Probabilitat 40% :
Temporalment
l' 22 a les 15 UTC al 22 a les 21 UTC
Vent 15 kt del Sud amb ràfegues de 25 kt

TAF: EGPD 220455Z 2206/2306 22009KT 9999 SCT018 PROB40 TEMPO 2215/2221 19015G25KT

Observacions i pronòstics meteorològics de més de 4000 aeroports (METAR i TAF).

Les estacions disponibles són els punts grocs i vermells al mapa.

Posi el ratolí al punt desitjat per veure el nom de l'estació.

Feu clic per veure les observacions i els pronòstics meteorològics.

Per canviar el mapa: feu clic els botons verds amb una creu de color negre per apropar; al botó verd amb un guió per allunyar la imatge; o en les fletxes verdes per a mapes adjacents.


METAR-TAF: